SAS909P EPMO-EKCH
Flight info
| Callsign | SAS909P |
|---|---|
| Flight time | 1h 36m |
| Altitude | 18000 |
| Route | OLILA L621 ROE M743 TIDVU |
| Aircraft | AT76/M-SBDFGRY/S |
Departure
| Time | 2026-05-04 19:25 |
|---|---|
| Airport | Warsaw Modlin Airport (EPMO) |
Arrival
| Time | 2026-05-04 21:01 |
|---|---|
| Airport | Copenhagen Kastrup Airport (EKCH) |
| Time | Latitude | Longitude | Altitude | Speed | Heading |
|---|---|---|---|---|---|
| 2026-05-04 19:03 | 52.44739 | 20.65255 | 346 ft | 0 kts | 204° |
| 2026-05-04 19:20 | 52.44737 | 20.65258 | 319 ft | 0 kts | 168° |
| 2026-05-04 19:20 | 52.44737 | 20.65265 | 329 ft | 1 kts | 109° |
| 2026-05-04 19:20 | 52.44753 | 20.65284 | 356 ft | 6 kts | 15° |
| 2026-05-04 19:21 | 52.44800 | 20.65350 | 346 ft | 18 kts | 81° |
| 2026-05-04 19:21 | 52.44819 | 20.65552 | 350 ft | 19 kts | 80° |
| 2026-05-04 19:21 | 52.44851 | 20.65891 | 354 ft | 26 kts | 82° |
| 2026-05-04 19:21 | 52.44869 | 20.66104 | 351 ft | 17 kts | 81° |
| 2026-05-04 19:22 | 52.44890 | 20.66297 | 348 ft | 17 kts | 79° |
| 2026-05-04 19:22 | 52.44907 | 20.66464 | 350 ft | 7 kts | 86° |
| 2026-05-04 19:22 | 52.44915 | 20.66592 | 346 ft | 21 kts | 81° |
| 2026-05-04 19:22 | 52.44942 | 20.66878 | 349 ft | 23 kts | 81° |
| 2026-05-04 19:23 | 52.45000 | 20.67074 | 349 ft | 16 kts | 9° |
| 2026-05-04 19:23 | 52.45101 | 20.67052 | 352 ft | 14 kts | 350° |
| 2026-05-04 19:23 | 52.45189 | 20.67025 | 350 ft | 12 kts | 346° |
| 2026-05-04 19:23 | 52.45263 | 20.66983 | 346 ft | 11 kts | 336° |
| 2026-05-04 19:24 | 52.45283 | 20.66902 | 346 ft | 8 kts | 262° |
| 2026-05-04 19:24 | 52.45282 | 20.66884 | 353 ft | 0 kts | 261° |
| 2026-05-04 19:24 | 52.45281 | 20.66880 | 353 ft | 7 kts | 261° |
| 2026-05-04 19:24 | 52.45241 | 20.66440 | 346 ft | 72 kts | 262° |
| 2026-05-04 19:25 | 52.45133 | 20.65314 | 358 ft | 124 kts | 261° |
| 2026-05-04 19:25 | 52.44985 | 20.63950 | 929 ft | 116 kts | 262° |
| 2026-05-04 19:25 | 52.44808 | 20.62508 | 1296 ft | 133 kts | 259° |
| 2026-05-04 19:25 | 52.44627 | 20.61028 | 1911 ft | 132 kts | 261° |
| 2026-05-04 19:26 | 52.44468 | 20.59443 | 2314 ft | 145 kts | 262° |
| 2026-05-04 19:26 | 52.44327 | 20.57807 | 2871 ft | 145 kts | 262° |
| 2026-05-04 19:26 | 52.44261 | 20.56725 | 3232 ft | 143 kts | 271° |
| 2026-05-04 19:26 | 52.44787 | 20.55390 | 3739 ft | 151 kts | 330° |
| 2026-05-04 19:27 | 52.46125 | 20.54718 | 4444 ft | 153 kts | 341° |
| 2026-05-04 19:27 | 52.47116 | 20.54107 | 4973 ft | 150 kts | 325° |
| 2026-05-04 19:27 | 52.48055 | 20.53161 | 5262 ft | 167 kts | 324° |
| 2026-05-04 19:27 | 52.49087 | 20.52111 | 5493 ft | 184 kts | 324° |
| 2026-05-04 19:28 | 52.49847 | 20.51334 | 5634 ft | 195 kts | 325° |
| 2026-05-04 19:28 | 52.51031 | 20.50200 | 6066 ft | 199 kts | 327° |
| 2026-05-04 19:28 | 52.52249 | 20.49104 | 6526 ft | 200 kts | 328° |
| 2026-05-04 19:28 | 52.53460 | 20.48023 | 6951 ft | 201 kts | 327° |
| 2026-05-04 19:29 | 52.54692 | 20.46923 | 7240 ft | 202 kts | 327° |
| 2026-05-04 19:29 | 52.55930 | 20.45816 | 7545 ft | 203 kts | 327° |
| 2026-05-04 19:29 | 52.57173 | 20.44706 | 7850 ft | 204 kts | 327° |
| 2026-05-04 19:29 | 52.58418 | 20.43592 | 8163 ft | 204 kts | 327° |
| 2026-05-04 19:30 | 52.59664 | 20.42472 | 8480 ft | 205 kts | 327° |
| 2026-05-04 19:30 | 52.60918 | 20.41348 | 8814 ft | 205 kts | 326° |
| 2026-05-04 19:30 | 52.62164 | 20.40229 | 9166 ft | 203 kts | 326° |
| 2026-05-04 19:30 | 52.63401 | 20.39117 | 9529 ft | 202 kts | 326° |
| 2026-05-04 19:31 | 52.64657 | 20.37987 | 9908 ft | 209 kts | 326° |
| 2026-05-04 19:31 | 52.65942 | 20.36831 | 10300 ft | 212 kts | 326° |
| 2026-05-04 19:31 | 52.67237 | 20.35667 | 10753 ft | 212 kts | 326° |
| 2026-05-04 19:31 | 52.68528 | 20.34509 | 11219 ft | 211 kts | 325° |
| 2026-05-04 19:32 | 52.69815 | 20.33346 | 11688 ft | 211 kts | 324° |
| 2026-05-04 19:32 | 52.71002 | 20.32000 | 12149 ft | 203 kts | 310° |
| 2026-05-04 19:32 | 52.71960 | 20.30325 | 12617 ft | 200 kts | 304° |
| 2026-05-04 19:32 | 52.72857 | 20.28584 | 13106 ft | 199 kts | 303° |
| 2026-05-04 19:33 | 52.73748 | 20.26844 | 13590 ft | 198 kts | 303° |
| 2026-05-04 19:33 | 52.74645 | 20.25106 | 14017 ft | 200 kts | 304° |
| 2026-05-04 19:33 | 52.75552 | 20.23400 | 14403 ft | 201 kts | 304° |
| 2026-05-04 19:33 | 52.76486 | 20.21667 | 14793 ft | 202 kts | 305° |
| 2026-05-04 19:34 | 52.77425 | 20.19930 | 15174 ft | 204 kts | 305° |
| 2026-05-04 19:34 | 52.78372 | 20.18181 | 15549 ft | 205 kts | 305° |
| 2026-05-04 19:34 | 52.79324 | 20.16421 | 15919 ft | 206 kts | 306° |
| 2026-05-04 19:34 | 52.80282 | 20.14647 | 16282 ft | 207 kts | 306° |
| 2026-05-04 19:35 | 52.81239 | 20.12867 | 16635 ft | 208 kts | 306° |
| 2026-05-04 19:35 | 52.82196 | 20.11063 | 16985 ft | 208 kts | 305° |
| 2026-05-04 19:35 | 52.83136 | 20.09234 | 17322 ft | 209 kts | 304° |
| 2026-05-04 19:35 | 52.84076 | 20.07382 | 17644 ft | 210 kts | 304° |
| 2026-05-04 19:36 | 52.85016 | 20.05527 | 17820 ft | 218 kts | 305° |
| 2026-05-04 19:36 | 52.86024 | 20.03525 | 17881 ft | 229 kts | 305° |
| 2026-05-04 19:36 | 52.87065 | 20.01459 | 17913 ft | 238 kts | 305° |
| 2026-05-04 19:36 | 52.88133 | 19.99339 | 17924 ft | 246 kts | 305° |
| 2026-05-04 19:37 | 52.89244 | 19.97133 | 17931 ft | 251 kts | 305° |
| 2026-05-04 19:37 | 52.90362 | 19.94912 | 17927 ft | 251 kts | 305° |
| 2026-05-04 19:37 | 52.91483 | 19.92681 | 17932 ft | 252 kts | 305° |
| 2026-05-04 19:37 | 52.92604 | 19.90446 | 17933 ft | 252 kts | 305° |
| 2026-05-04 19:38 | 52.93725 | 19.88212 | 17931 ft | 252 kts | 305° |
| 2026-05-04 19:38 | 52.94839 | 19.85972 | 17934 ft | 252 kts | 305° |
| 2026-05-04 19:38 | 52.95945 | 19.83710 | 17934 ft | 252 kts | 304° |
| 2026-05-04 19:38 | 52.97042 | 19.81451 | 17939 ft | 251 kts | 304° |
| 2026-05-04 19:39 | 52.98156 | 19.79210 | 17938 ft | 252 kts | 305° |
| 2026-05-04 19:39 | 52.99274 | 19.76971 | 17936 ft | 252 kts | 305° |
| 2026-05-04 19:39 | 53.00391 | 19.74730 | 17934 ft | 252 kts | 305° |
| 2026-05-04 19:39 | 53.01504 | 19.72494 | 17934 ft | 251 kts | 305° |
| 2026-05-04 19:40 | 53.02620 | 19.70253 | 17932 ft | 251 kts | 305° |
| 2026-05-04 19:40 | 53.03719 | 19.68044 | 17940 ft | 251 kts | 305° |
| 2026-05-04 19:40 | 53.04834 | 19.65803 | 17938 ft | 251 kts | 305° |
| 2026-05-04 19:40 | 53.05945 | 19.63560 | 17936 ft | 251 kts | 305° |
| 2026-05-04 19:41 | 53.07102 | 19.61374 | 17936 ft | 253 kts | 309° |
| 2026-05-04 19:41 | 53.08362 | 19.59316 | 17937 ft | 254 kts | 311° |
| 2026-05-04 19:41 | 53.09633 | 19.57282 | 17937 ft | 254 kts | 311° |
| 2026-05-04 19:41 | 53.10892 | 19.55229 | 17939 ft | 253 kts | 310° |
| 2026-05-04 19:42 | 53.12126 | 19.53143 | 17941 ft | 253 kts | 309° |
| 2026-05-04 19:42 | 53.13359 | 19.51045 | 17942 ft | 253 kts | 309° |
| 2026-05-04 19:42 | 53.14590 | 19.48948 | 17940 ft | 253 kts | 309° |
| 2026-05-04 19:42 | 53.15816 | 19.46852 | 17942 ft | 253 kts | 309° |
| 2026-05-04 19:43 | 53.17043 | 19.44756 | 17940 ft | 253 kts | 309° |
| 2026-05-04 19:43 | 53.18271 | 19.42653 | 17941 ft | 253 kts | 309° |
| 2026-05-04 19:43 | 53.19499 | 19.40556 | 17940 ft | 253 kts | 309° |
| 2026-05-04 19:43 | 53.20727 | 19.38455 | 17936 ft | 253 kts | 309° |
| 2026-05-04 19:44 | 53.21953 | 19.36353 | 17937 ft | 253 kts | 309° |
| 2026-05-04 19:44 | 53.23149 | 19.34204 | 17943 ft | 252 kts | 307° |
| 2026-05-04 19:44 | 53.24288 | 19.32042 | 17943 ft | 251 kts | 306° |
| 2026-05-04 19:44 | 53.25431 | 19.29832 | 17942 ft | 251 kts | 306° |
| 2026-05-04 19:45 | 53.26581 | 19.27586 | 17940 ft | 251 kts | 305° |
| 2026-05-04 19:45 | 53.27692 | 19.25389 | 17944 ft | 251 kts | 305° |
| 2026-05-04 19:45 | 53.28830 | 19.23182 | 17943 ft | 251 kts | 306° |
| 2026-05-04 19:45 | 53.29976 | 19.20977 | 17946 ft | 251 kts | 306° |
| 2026-05-04 19:46 | 53.31120 | 19.18778 | 17948 ft | 251 kts | 306° |
| 2026-05-04 19:46 | 53.32262 | 19.16578 | 17943 ft | 250 kts | 306° |
| 2026-05-04 19:46 | 53.33405 | 19.14375 | 17946 ft | 250 kts | 306° |
| 2026-05-04 19:46 | 53.34548 | 19.12174 | 17945 ft | 250 kts | 306° |
| 2026-05-04 19:47 | 53.35691 | 19.09971 | 17946 ft | 250 kts | 306° |
| 2026-05-04 19:47 | 53.36830 | 19.07772 | 17948 ft | 250 kts | 306° |
| 2026-05-04 19:47 | 53.37964 | 19.05573 | 17949 ft | 250 kts | 306° |
| 2026-05-04 19:47 | 53.39102 | 19.03370 | 17948 ft | 250 kts | 306° |
| 2026-05-04 19:48 | 53.40225 | 19.01196 | 17952 ft | 249 kts | 305° |
| 2026-05-04 19:48 | 53.41359 | 18.98996 | 17950 ft | 249 kts | 306° |
| 2026-05-04 19:48 | 53.42495 | 18.96794 | 17949 ft | 249 kts | 305° |
| 2026-05-04 19:48 | 53.43630 | 18.94591 | 17951 ft | 249 kts | 305° |
| 2026-05-04 19:49 | 53.44765 | 18.92387 | 17949 ft | 249 kts | 305° |
| 2026-05-04 19:49 | 53.45901 | 18.90174 | 17953 ft | 249 kts | 305° |
| 2026-05-04 19:49 | 53.47033 | 18.87970 | 17953 ft | 249 kts | 305° |
| 2026-05-04 19:49 | 53.48166 | 18.85764 | 17950 ft | 249 kts | 305° |
| 2026-05-04 19:50 | 53.49295 | 18.83563 | 17955 ft | 249 kts | 305° |
| 2026-05-04 19:50 | 53.50426 | 18.81353 | 17952 ft | 249 kts | 305° |
| 2026-05-04 19:50 | 53.51551 | 18.79148 | 17955 ft | 249 kts | 305° |
| 2026-05-04 19:50 | 53.52648 | 18.76908 | 17954 ft | 247 kts | 302° |
| 2026-05-04 19:51 | 53.53610 | 18.74565 | 17953 ft | 246 kts | 298° |
| 2026-05-04 19:51 | 53.54529 | 18.72151 | 17956 ft | 245 kts | 297° |
| 2026-05-04 19:51 | 53.55423 | 18.69760 | 17955 ft | 245 kts | 297° |
| 2026-05-04 19:51 | 53.56338 | 18.67345 | 17951 ft | 245 kts | 298° |
| 2026-05-04 19:52 | 53.57278 | 18.64955 | 17952 ft | 245 kts | 298° |
| 2026-05-04 19:52 | 53.58220 | 18.62561 | 17954 ft | 245 kts | 298° |
| 2026-05-04 19:52 | 53.59159 | 18.60167 | 17955 ft | 245 kts | 298° |
| 2026-05-04 19:52 | 53.60096 | 18.57775 | 17957 ft | 245 kts | 298° |
| 2026-05-04 19:53 | 53.61038 | 18.55376 | 17954 ft | 245 kts | 298° |
| 2026-05-04 19:53 | 53.61975 | 18.52984 | 17958 ft | 245 kts | 298° |
| 2026-05-04 19:53 | 53.62910 | 18.50587 | 17954 ft | 245 kts | 298° |
| 2026-05-04 19:53 | 53.63846 | 18.48188 | 17956 ft | 245 kts | 298° |
| 2026-05-04 19:54 | 53.64779 | 18.45791 | 17956 ft | 245 kts | 298° |
| 2026-05-04 19:54 | 53.65717 | 18.43397 | 17959 ft | 245 kts | 298° |
| 2026-05-04 19:54 | 53.66652 | 18.41005 | 17960 ft | 244 kts | 298° |
| 2026-05-04 19:54 | 53.67576 | 18.38635 | 17959 ft | 244 kts | 298° |
| 2026-05-04 19:55 | 53.68510 | 18.36239 | 17960 ft | 244 kts | 298° |
| 2026-05-04 19:55 | 53.69444 | 18.33839 | 17964 ft | 244 kts | 298° |
| 2026-05-04 19:55 | 53.70377 | 18.31438 | 17961 ft | 244 kts | 298° |
| 2026-05-04 19:55 | 53.71306 | 18.29043 | 17963 ft | 244 kts | 298° |
| 2026-05-04 19:56 | 53.72237 | 18.26642 | 17964 ft | 244 kts | 298° |
| 2026-05-04 19:56 | 53.73165 | 18.24244 | 17963 ft | 244 kts | 298° |
| 2026-05-04 19:56 | 53.74092 | 18.21845 | 17965 ft | 244 kts | 298° |
| 2026-05-04 19:56 | 53.75020 | 18.19443 | 17962 ft | 244 kts | 298° |
| 2026-05-04 19:57 | 53.75949 | 18.17039 | 17967 ft | 244 kts | 298° |
| 2026-05-04 19:57 | 53.76876 | 18.14634 | 17964 ft | 244 kts | 298° |
| 2026-05-04 19:57 | 53.77802 | 18.12232 | 17966 ft | 244 kts | 298° |
| 2026-05-04 19:57 | 53.78725 | 18.09834 | 17969 ft | 244 kts | 298° |
| 2026-05-04 19:58 | 53.79653 | 18.07424 | 17968 ft | 244 kts | 298° |
| 2026-05-04 19:58 | 53.80575 | 18.05023 | 17968 ft | 243 kts | 298° |
| 2026-05-04 19:58 | 53.81485 | 18.02652 | 17972 ft | 243 kts | 298° |
| 2026-05-04 19:58 | 53.82409 | 18.00243 | 17969 ft | 243 kts | 298° |
| 2026-05-04 19:59 | 53.83329 | 17.97840 | 17968 ft | 243 kts | 298° |
| 2026-05-04 19:59 | 53.84251 | 17.95434 | 17969 ft | 243 kts | 298° |
| 2026-05-04 19:59 | 53.85170 | 17.93032 | 17972 ft | 243 kts | 298° |
| 2026-05-04 19:59 | 53.86089 | 17.90626 | 17969 ft | 243 kts | 298° |
| 2026-05-04 20:00 | 53.87005 | 17.88225 | 17974 ft | 243 kts | 297° |
| 2026-05-04 20:00 | 53.87923 | 17.85819 | 17973 ft | 243 kts | 297° |
| 2026-05-04 20:00 | 53.88842 | 17.83407 | 17975 ft | 243 kts | 297° |
| 2026-05-04 20:00 | 53.89746 | 17.81030 | 17976 ft | 243 kts | 297° |
| 2026-05-04 20:01 | 53.90662 | 17.78621 | 17976 ft | 243 kts | 297° |
| 2026-05-04 20:01 | 53.91576 | 17.76215 | 17971 ft | 243 kts | 297° |
| 2026-05-04 20:01 | 53.92491 | 17.73806 | 17972 ft | 243 kts | 297° |
| 2026-05-04 20:01 | 53.93402 | 17.71398 | 17974 ft | 242 kts | 297° |
| 2026-05-04 20:02 | 53.94314 | 17.68991 | 17980 ft | 242 kts | 297° |
| 2026-05-04 20:02 | 53.95226 | 17.66581 | 17982 ft | 242 kts | 297° |
| 2026-05-04 20:02 | 53.96134 | 17.64169 | 17976 ft | 242 kts | 297° |
| 2026-05-04 20:02 | 53.97043 | 17.61756 | 17980 ft | 242 kts | 297° |
| 2026-05-04 20:03 | 53.97951 | 17.59343 | 17978 ft | 242 kts | 297° |
| 2026-05-04 20:03 | 53.98859 | 17.56932 | 17973 ft | 242 kts | 297° |
| 2026-05-04 20:03 | 53.99759 | 17.54543 | 17980 ft | 242 kts | 297° |
| 2026-05-04 20:03 | 54.00667 | 17.52130 | 17979 ft | 242 kts | 297° |
| 2026-05-04 20:04 | 54.01571 | 17.49728 | 17974 ft | 241 kts | 297° |
| 2026-05-04 20:04 | 54.02477 | 17.47320 | 17978 ft | 241 kts | 297° |
| 2026-05-04 20:04 | 54.03381 | 17.44915 | 17981 ft | 241 kts | 297° |
| 2026-05-04 20:04 | 54.04286 | 17.42505 | 17982 ft | 241 kts | 297° |
| 2026-05-04 20:05 | 54.05188 | 17.40092 | 17986 ft | 241 kts | 297° |
| 2026-05-04 20:05 | 54.06088 | 17.37685 | 17983 ft | 241 kts | 297° |
| 2026-05-04 20:05 | 54.06987 | 17.35279 | 17977 ft | 241 kts | 297° |
| 2026-05-04 20:05 | 54.07888 | 17.32865 | 17978 ft | 240 kts | 297° |
| 2026-05-04 20:06 | 54.08779 | 17.30457 | 17982 ft | 240 kts | 297° |
| 2026-05-04 20:06 | 54.09675 | 17.28052 | 17982 ft | 240 kts | 297° |
| 2026-05-04 20:06 | 54.10573 | 17.25652 | 17978 ft | 240 kts | 297° |
| 2026-05-04 20:06 | 54.11464 | 17.23244 | 17981 ft | 240 kts | 297° |
| 2026-05-04 20:07 | 54.12358 | 17.20841 | 17983 ft | 240 kts | 297° |
| 2026-05-04 20:07 | 54.13254 | 17.18433 | 17982 ft | 240 kts | 297° |
| 2026-05-04 20:07 | 54.14143 | 17.16022 | 17983 ft | 240 kts | 297° |
| 2026-05-04 20:07 | 54.15037 | 17.13616 | 17984 ft | 240 kts | 297° |
| 2026-05-04 20:08 | 54.15919 | 17.11229 | 17979 ft | 240 kts | 297° |
| 2026-05-04 20:08 | 54.16812 | 17.08814 | 17978 ft | 240 kts | 297° |
| 2026-05-04 20:08 | 54.17705 | 17.06404 | 17983 ft | 240 kts | 297° |
| 2026-05-04 20:08 | 54.18599 | 17.03995 | 17985 ft | 240 kts | 297° |
| 2026-05-04 20:09 | 54.19490 | 17.01587 | 17982 ft | 240 kts | 297° |
| 2026-05-04 20:09 | 54.20381 | 16.99170 | 17981 ft | 240 kts | 297° |
| 2026-05-04 20:09 | 54.21267 | 16.96759 | 17981 ft | 240 kts | 297° |
| 2026-05-04 20:09 | 54.22154 | 16.94343 | 17984 ft | 240 kts | 297° |
| 2026-05-04 20:10 | 54.23040 | 16.91928 | 17983 ft | 240 kts | 296° |
| 2026-05-04 20:10 | 54.23929 | 16.89508 | 17982 ft | 240 kts | 297° |
| 2026-05-04 20:10 | 54.24857 | 16.87127 | 17979 ft | 241 kts | 299° |
| 2026-05-04 20:10 | 54.25844 | 16.84802 | 17978 ft | 242 kts | 301° |
| 2026-05-04 20:11 | 54.26861 | 16.82504 | 17977 ft | 242 kts | 301° |
| 2026-05-04 20:11 | 54.27876 | 16.80200 | 17979 ft | 242 kts | 301° |
| 2026-05-04 20:11 | 54.28544 | 16.78677 | 17978 ft | 242 kts | 301° |
| 2026-05-04 20:11 | 54.29551 | 16.76372 | 17974 ft | 242 kts | 301° |
| 2026-05-04 20:12 | 54.30557 | 16.74065 | 17981 ft | 242 kts | 301° |
| 2026-05-04 20:12 | 54.31563 | 16.71758 | 17975 ft | 242 kts | 301° |
| 2026-05-04 20:12 | 54.32899 | 16.68701 | 17973 ft | 242 kts | 301° |
| 2026-05-04 20:12 | 54.33576 | 16.67147 | 17977 ft | 241 kts | 301° |
| 2026-05-04 20:13 | 54.34580 | 16.64838 | 17975 ft | 241 kts | 301° |
| 2026-05-04 20:13 | 54.35588 | 16.62520 | 17977 ft | 241 kts | 301° |
| 2026-05-04 20:13 | 54.36590 | 16.60212 | 17977 ft | 241 kts | 301° |
| 2026-05-04 20:13 | 54.37591 | 16.57905 | 17975 ft | 241 kts | 301° |
| 2026-05-04 20:14 | 54.38595 | 16.55594 | 17980 ft | 241 kts | 301° |
| 2026-05-04 20:14 | 54.39597 | 16.53280 | 17978 ft | 241 kts | 301° |
| 2026-05-04 20:14 | 54.40586 | 16.50996 | 17971 ft | 241 kts | 301° |
| 2026-05-04 20:14 | 54.41588 | 16.48682 | 17972 ft | 241 kts | 301° |
| 2026-05-04 20:15 | 54.42589 | 16.46367 | 17973 ft | 241 kts | 301° |
| 2026-05-04 20:15 | 54.43586 | 16.44054 | 17972 ft | 241 kts | 301° |
| 2026-05-04 20:15 | 54.44590 | 16.41725 | 17974 ft | 241 kts | 301° |
| 2026-05-04 20:15 | 54.45591 | 16.39403 | 17974 ft | 241 kts | 301° |
| 2026-05-04 20:16 | 54.46591 | 16.37082 | 17974 ft | 241 kts | 301° |
| 2026-05-04 20:16 | 54.47589 | 16.34762 | 17969 ft | 241 kts | 300° |
| 2026-05-04 20:16 | 54.48586 | 16.32440 | 17972 ft | 241 kts | 300° |
| 2026-05-04 20:16 | 54.49584 | 16.30115 | 17972 ft | 241 kts | 300° |
| 2026-05-04 20:17 | 54.50580 | 16.27796 | 17970 ft | 241 kts | 300° |
| 2026-05-04 20:17 | 54.51576 | 16.25470 | 17977 ft | 241 kts | 300° |
| 2026-05-04 20:17 | 54.52571 | 16.23147 | 17975 ft | 241 kts | 300° |
| 2026-05-04 20:17 | 54.53565 | 16.20823 | 17971 ft | 241 kts | 300° |
| 2026-05-04 20:18 | 54.54559 | 16.18495 | 17968 ft | 241 kts | 300° |
| 2026-05-04 20:18 | 54.55543 | 16.16192 | 17972 ft | 241 kts | 301° |
| 2026-05-04 20:18 | 54.56537 | 16.13864 | 17964 ft | 241 kts | 300° |
| 2026-05-04 20:18 | 54.57529 | 16.11533 | 17963 ft | 241 kts | 300° |
| 2026-05-04 20:19 | 54.58522 | 16.09201 | 17966 ft | 241 kts | 300° |
| 2026-05-04 20:19 | 54.59515 | 16.06868 | 17966 ft | 241 kts | 300° |
| 2026-05-04 20:19 | 54.60506 | 16.04536 | 17965 ft | 241 kts | 300° |
| 2026-05-04 20:19 | 54.61498 | 16.02197 | 17966 ft | 241 kts | 300° |
| 2026-05-04 20:20 | 54.62491 | 15.99855 | 17965 ft | 241 kts | 300° |
| 2026-05-04 20:20 | 54.63481 | 15.97518 | 17967 ft | 241 kts | 300° |
| 2026-05-04 20:20 | 54.64472 | 15.95178 | 17969 ft | 241 kts | 300° |
| 2026-05-04 20:20 | 54.65450 | 15.92870 | 17969 ft | 241 kts | 300° |
| 2026-05-04 20:21 | 54.66443 | 15.90523 | 17962 ft | 241 kts | 300° |
| 2026-05-04 20:21 | 54.67432 | 15.88176 | 17967 ft | 241 kts | 300° |
| 2026-05-04 20:21 | 54.69407 | 15.83488 | 17967 ft | 241 kts | 300° |
| 2026-05-04 20:22 | 54.70394 | 15.81143 | 17970 ft | 241 kts | 300° |
| 2026-05-04 20:22 | 54.71382 | 15.78795 | 17969 ft | 241 kts | 300° |
| 2026-05-04 20:22 | 54.72369 | 15.76446 | 17962 ft | 241 kts | 300° |
| 2026-05-04 20:22 | 54.73363 | 15.74091 | 17965 ft | 242 kts | 301° |
| 2026-05-04 20:23 | 54.74357 | 15.71745 | 17963 ft | 242 kts | 300° |
| 2026-05-04 20:23 | 54.75345 | 15.69390 | 17963 ft | 242 kts | 300° |
| 2026-05-04 20:23 | 54.76326 | 15.67026 | 17965 ft | 242 kts | 300° |
| 2026-05-04 20:23 | 54.77289 | 15.64688 | 17966 ft | 241 kts | 300° |
| 2026-05-04 20:24 | 54.78265 | 15.62314 | 17965 ft | 242 kts | 300° |
| 2026-05-04 20:24 | 54.79241 | 15.59943 | 17960 ft | 242 kts | 300° |
| 2026-05-04 20:24 | 54.80217 | 15.57574 | 17960 ft | 242 kts | 300° |
| 2026-05-04 20:24 | 54.81196 | 15.55200 | 17963 ft | 242 kts | 300° |
| 2026-05-04 20:25 | 54.82171 | 15.52830 | 17961 ft | 242 kts | 300° |
| 2026-05-04 20:25 | 54.83151 | 15.50448 | 17961 ft | 242 kts | 300° |
| 2026-05-04 20:25 | 54.84125 | 15.48075 | 17964 ft | 242 kts | 300° |
| 2026-05-04 20:25 | 54.85101 | 15.45695 | 17962 ft | 242 kts | 300° |
| 2026-05-04 20:26 | 54.86077 | 15.43315 | 17961 ft | 242 kts | 300° |
| 2026-05-04 20:26 | 54.87052 | 15.40931 | 17960 ft | 242 kts | 300° |
| 2026-05-04 20:26 | 54.88028 | 15.38547 | 17961 ft | 242 kts | 300° |
| 2026-05-04 20:26 | 54.89002 | 15.36163 | 17961 ft | 242 kts | 300° |
| 2026-05-04 20:27 | 54.89977 | 15.33777 | 17959 ft | 242 kts | 300° |
| 2026-05-04 20:27 | 54.90950 | 15.31389 | 17959 ft | 242 kts | 300° |
| 2026-05-04 20:27 | 54.91907 | 15.28983 | 17958 ft | 241 kts | 297° |
| 2026-05-04 20:27 | 54.92676 | 15.26416 | 17955 ft | 238 kts | 291° |
| 2026-05-04 20:28 | 54.93355 | 15.23789 | 17955 ft | 238 kts | 290° |
| 2026-05-04 20:28 | 54.94019 | 15.21190 | 17955 ft | 238 kts | 290° |
| 2026-05-04 20:28 | 54.94721 | 15.18572 | 17950 ft | 239 kts | 291° |
| 2026-05-04 20:28 | 54.95448 | 15.15975 | 17951 ft | 239 kts | 292° |
| 2026-05-04 20:29 | 54.96176 | 15.13371 | 17947 ft | 239 kts | 292° |
| 2026-05-04 20:29 | 54.96902 | 15.10768 | 17947 ft | 239 kts | 292° |
| 2026-05-04 20:29 | 54.97628 | 15.08157 | 17946 ft | 239 kts | 292° |
| 2026-05-04 20:29 | 54.98352 | 15.05547 | 17947 ft | 240 kts | 292° |
| 2026-05-04 20:30 | 54.99077 | 15.02931 | 17944 ft | 240 kts | 292° |
| 2026-05-04 20:30 | 54.99802 | 15.00313 | 17943 ft | 240 kts | 292° |
| 2026-05-04 20:30 | 55.00526 | 14.97697 | 17943 ft | 240 kts | 292° |
| 2026-05-04 20:30 | 55.01252 | 14.95070 | 17942 ft | 240 kts | 292° |
| 2026-05-04 20:31 | 55.01976 | 14.92444 | 17942 ft | 241 kts | 292° |
| 2026-05-04 20:31 | 55.02703 | 14.89811 | 17940 ft | 241 kts | 292° |
| 2026-05-04 20:31 | 55.03428 | 14.87176 | 17945 ft | 241 kts | 291° |
| 2026-05-04 20:31 | 55.04154 | 14.84537 | 17940 ft | 241 kts | 292° |
| 2026-05-04 20:32 | 55.04868 | 14.81936 | 17939 ft | 241 kts | 292° |
| 2026-05-04 20:32 | 55.05591 | 14.79299 | 17932 ft | 241 kts | 292° |
| 2026-05-04 20:32 | 55.06315 | 14.76658 | 17937 ft | 241 kts | 292° |
| 2026-05-04 20:32 | 55.07064 | 14.74035 | 17942 ft | 241 kts | 293° |
| 2026-05-04 20:33 | 55.07831 | 14.71426 | 17939 ft | 242 kts | 293° |
| 2026-05-04 20:33 | 55.08603 | 14.68822 | 17944 ft | 242 kts | 293° |
| 2026-05-04 20:33 | 55.09372 | 14.66212 | 17938 ft | 241 kts | 293° |
| 2026-05-04 20:33 | 55.10138 | 14.63608 | 17942 ft | 241 kts | 293° |
| 2026-05-04 20:34 | 55.10904 | 14.61000 | 17936 ft | 241 kts | 293° |
| 2026-05-04 20:34 | 55.11668 | 14.58397 | 17943 ft | 241 kts | 293° |
| 2026-05-04 20:34 | 55.12433 | 14.55783 | 17946 ft | 241 kts | 293° |
| 2026-05-04 20:34 | 55.13196 | 14.53176 | 17942 ft | 241 kts | 293° |
| 2026-05-04 20:35 | 55.13959 | 14.50571 | 17939 ft | 241 kts | 293° |
| 2026-05-04 20:35 | 55.14723 | 14.47966 | 17944 ft | 241 kts | 293° |
| 2026-05-04 20:35 | 55.15483 | 14.45359 | 17941 ft | 241 kts | 293° |
| 2026-05-04 20:35 | 55.16244 | 14.42744 | 17945 ft | 241 kts | 293° |
| 2026-05-04 20:36 | 55.17002 | 14.40133 | 17947 ft | 241 kts | 293° |
| 2026-05-04 20:36 | 55.17760 | 14.37526 | 17947 ft | 241 kts | 293° |
| 2026-05-04 20:36 | 55.18518 | 14.34916 | 17947 ft | 241 kts | 293° |
| 2026-05-04 20:36 | 55.19266 | 14.32335 | 17956 ft | 240 kts | 293° |
| 2026-05-04 20:37 | 55.20023 | 14.29720 | 17955 ft | 240 kts | 293° |
| 2026-05-04 20:37 | 55.20778 | 14.27109 | 17956 ft | 240 kts | 293° |
| 2026-05-04 20:37 | 55.21533 | 14.24496 | 17950 ft | 240 kts | 292° |
| 2026-05-04 20:37 | 55.22287 | 14.21883 | 17952 ft | 240 kts | 292° |
| 2026-05-04 20:38 | 55.23039 | 14.19275 | 17952 ft | 240 kts | 292° |
| 2026-05-04 20:38 | 55.23792 | 14.16661 | 17954 ft | 240 kts | 292° |
| 2026-05-04 20:38 | 55.24544 | 14.14047 | 17954 ft | 240 kts | 292° |
| 2026-05-04 20:38 | 55.25295 | 14.11435 | 17956 ft | 240 kts | 292° |
| 2026-05-04 20:39 | 55.26044 | 14.08822 | 17952 ft | 240 kts | 292° |
| 2026-05-04 20:39 | 55.26807 | 14.06156 | 17644 ft | 251 kts | 293° |
| 2026-05-04 20:39 | 55.27599 | 14.03401 | 17271 ft | 260 kts | 293° |
| 2026-05-04 20:39 | 55.28422 | 14.00520 | 16889 ft | 268 kts | 293° |
| 2026-05-04 20:40 | 55.29268 | 13.97563 | 16501 ft | 274 kts | 293° |
| 2026-05-04 20:40 | 55.30129 | 13.94545 | 16110 ft | 278 kts | 293° |
| 2026-05-04 20:40 | 55.30998 | 13.91488 | 15798 ft | 279 kts | 293° |
| 2026-05-04 20:40 | 55.31867 | 13.88451 | 15560 ft | 278 kts | 293° |
| 2026-05-04 20:41 | 55.32730 | 13.85421 | 15302 ft | 277 kts | 293° |
| 2026-05-04 20:41 | 55.33590 | 13.82389 | 15052 ft | 276 kts | 293° |
| 2026-05-04 20:41 | 55.34446 | 13.79369 | 14807 ft | 276 kts | 293° |
| 2026-05-04 20:41 | 55.35304 | 13.76348 | 14561 ft | 276 kts | 293° |
| 2026-05-04 20:42 | 55.36157 | 13.73333 | 14313 ft | 276 kts | 293° |
| 2026-05-04 20:42 | 55.37010 | 13.70313 | 14066 ft | 275 kts | 293° |
| 2026-05-04 20:42 | 55.37863 | 13.67294 | 13840 ft | 275 kts | 293° |
| 2026-05-04 20:42 | 55.38702 | 13.64316 | 13582 ft | 275 kts | 293° |
| 2026-05-04 20:43 | 55.39555 | 13.61287 | 13312 ft | 275 kts | 293° |
| 2026-05-04 20:43 | 55.40403 | 13.58268 | 13043 ft | 275 kts | 293° |
| 2026-05-04 20:43 | 55.41240 | 13.55249 | 12782 ft | 274 kts | 291° |
| 2026-05-04 20:43 | 55.41884 | 13.52123 | 12610 ft | 268 kts | 284° |
| 2026-05-04 20:44 | 55.42384 | 13.48988 | 12454 ft | 265 kts | 283° |
| 2026-05-04 20:44 | 55.42866 | 13.45864 | 12287 ft | 263 kts | 283° |
| 2026-05-04 20:44 | 55.43366 | 13.42770 | 12129 ft | 262 kts | 284° |
| 2026-05-04 20:44 | 55.43893 | 13.39691 | 11970 ft | 262 kts | 284° |
| 2026-05-04 20:45 | 55.44423 | 13.36622 | 11804 ft | 261 kts | 285° |
| 2026-05-04 20:45 | 55.44948 | 13.33563 | 11657 ft | 261 kts | 284° |
| 2026-05-04 20:45 | 55.45471 | 13.30511 | 11502 ft | 260 kts | 285° |
| 2026-05-04 20:45 | 55.45963 | 13.27453 | 11347 ft | 257 kts | 279° |
| 2026-05-04 20:46 | 55.45960 | 13.24367 | 11172 ft | 255 kts | 264° |
| 2026-05-04 20:46 | 55.45721 | 13.21275 | 11026 ft | 255 kts | 262° |
| 2026-05-04 20:46 | 55.45456 | 13.18140 | 10875 ft | 256 kts | 262° |
| 2026-05-04 20:46 | 55.45222 | 13.15028 | 10726 ft | 256 kts | 263° |
| 2026-05-04 20:47 | 55.45029 | 13.11935 | 10583 ft | 257 kts | 264° |
| 2026-05-04 20:47 | 55.44838 | 13.08804 | 10437 ft | 257 kts | 264° |
| 2026-05-04 20:47 | 55.44643 | 13.05673 | 10299 ft | 257 kts | 264° |
| 2026-05-04 20:47 | 55.44451 | 13.02549 | 10158 ft | 257 kts | 264° |
| 2026-05-04 20:48 | 55.44256 | 12.99426 | 10023 ft | 257 kts | 264° |
| 2026-05-04 20:48 | 55.44060 | 12.96297 | 9889 ft | 257 kts | 264° |
| 2026-05-04 20:48 | 55.43906 | 12.93180 | 9745 ft | 253 kts | 271° |
| 2026-05-04 20:48 | 55.44398 | 12.90204 | 9560 ft | 256 kts | 292° |
| 2026-05-04 20:49 | 55.45161 | 12.87349 | 9410 ft | 258 kts | 293° |
| 2026-05-04 20:49 | 55.45930 | 12.84493 | 9260 ft | 258 kts | 292° |
| 2026-05-04 20:49 | 55.46759 | 12.81719 | 9100 ft | 257 kts | 305° |
| 2026-05-04 20:49 | 55.48248 | 12.79922 | 8902 ft | 270 kts | 337° |
| 2026-05-04 20:50 | 55.50127 | 12.79752 | 8715 ft | 283 kts | 7° |
| 2026-05-04 20:50 | 55.51996 | 12.80913 | 8570 ft | 286 kts | 18° |
| 2026-05-04 20:50 | 55.53840 | 12.82243 | 8436 ft | 286 kts | 18° |
| 2026-05-04 20:50 | 55.55688 | 12.83542 | 8303 ft | 286 kts | 18° |
| 2026-05-04 20:51 | 55.57535 | 12.84840 | 8152 ft | 286 kts | 18° |
| 2026-05-04 20:51 | 55.59383 | 12.86165 | 7938 ft | 282 kts | 18° |
| 2026-05-04 20:51 | 55.61167 | 12.87480 | 7684 ft | 274 kts | 19° |
| 2026-05-04 20:51 | 55.62892 | 12.88787 | 7406 ft | 266 kts | 23° |
| 2026-05-04 20:52 | 55.64374 | 12.90748 | 7134 ft | 268 kts | 39° |
| 2026-05-04 20:52 | 55.65741 | 12.93029 | 6864 ft | 272 kts | 41° |
| 2026-05-04 20:52 | 55.67110 | 12.95366 | 6592 ft | 274 kts | 40° |
| 2026-05-04 20:52 | 55.68503 | 12.97667 | 6320 ft | 274 kts | 39° |
| 2026-05-04 20:53 | 55.69928 | 12.99908 | 6043 ft | 274 kts | 38° |
| 2026-05-04 20:53 | 55.71357 | 13.02139 | 5747 ft | 274 kts | 39° |
| 2026-05-04 20:53 | 55.72759 | 13.04421 | 5466 ft | 274 kts | 40° |
| 2026-05-04 20:53 | 55.74151 | 13.06725 | 5192 ft | 273 kts | 40° |
| 2026-05-04 20:54 | 55.75552 | 13.08990 | 4900 ft | 268 kts | 34° |
| 2026-05-04 20:54 | 55.77228 | 13.10216 | 4488 ft | 260 kts | 3° |
| 2026-05-04 20:54 | 55.78953 | 13.09709 | 3972 ft | 249 kts | 331° |
| 2026-05-04 20:54 | 55.80181 | 13.07679 | 3464 ft | 241 kts | 298° |
| 2026-05-04 20:55 | 55.80518 | 13.04868 | 3021 ft | 237 kts | 265° |
| 2026-05-04 20:55 | 55.80103 | 13.02115 | 2727 ft | 226 kts | 253° |
| 2026-05-04 20:55 | 55.79589 | 12.99534 | 2598 ft | 216 kts | 251° |
| 2026-05-04 20:55 | 55.79056 | 12.97060 | 2548 ft | 215 kts | 250° |
| 2026-05-04 20:56 | 55.78500 | 12.94582 | 2515 ft | 215 kts | 250° |
| 2026-05-04 20:56 | 55.77952 | 12.92166 | 2499 ft | 209 kts | 250° |
| 2026-05-04 20:56 | 55.77347 | 12.89845 | 2493 ft | 206 kts | 237° |
| 2026-05-04 20:56 | 55.76675 | 12.88618 | 2501 ft | 205 kts | 225° |
| 2026-05-04 20:57 | 55.75592 | 12.86967 | 2493 ft | 206 kts | 223° |
| 2026-05-04 20:57 | 55.74513 | 12.85370 | 2489 ft | 198 kts | 223° |
| 2026-05-04 20:57 | 55.73486 | 12.83818 | 2491 ft | 190 kts | 224° |
| 2026-05-04 20:57 | 55.72519 | 12.82304 | 2492 ft | 185 kts | 225° |
| 2026-05-04 20:58 | 55.71601 | 12.80841 | 2429 ft | 171 kts | 225° |
| 2026-05-04 20:58 | 55.70758 | 12.79511 | 2233 ft | 160 kts | 225° |
| 2026-05-04 20:58 | 55.69931 | 12.78224 | 2017 ft | 156 kts | 225° |
| 2026-05-04 20:58 | 55.69118 | 12.76978 | 1805 ft | 154 kts | 225° |
| 2026-05-04 20:59 | 55.68307 | 12.75717 | 1587 ft | 155 kts | 225° |
| 2026-05-04 20:59 | 55.67516 | 12.74482 | 1392 ft | 142 kts | 225° |
| 2026-05-04 20:59 | 55.66815 | 12.73392 | 1198 ft | 128 kts | 226° |
| 2026-05-04 20:59 | 55.66168 | 12.72392 | 1028 ft | 121 kts | 226° |
| 2026-05-04 21:00 | 55.65548 | 12.71410 | 846 ft | 119 kts | 225° |
| 2026-05-04 21:00 | 55.64933 | 12.70442 | 683 ft | 117 kts | 224° |
| 2026-05-04 21:00 | 55.64306 | 12.69473 | 524 ft | 121 kts | 223° |
| 2026-05-04 21:00 | 55.63665 | 12.68491 | 357 ft | 121 kts | 223° |
| 2026-05-04 21:01 | 55.63061 | 12.67551 | 199 ft | 111 kts | 223° |
| 2026-05-04 21:01 | 55.62486 | 12.66669 | 83 ft | 111 kts | 222° |
| 2026-05-04 21:01 | 55.62012 | 12.65924 | 21 ft | 44 kts | 220° |
| 2026-05-04 21:01 | 55.61847 | 12.65665 | 24 ft | 43 kts | 222° |
| 2026-05-04 21:02 | 55.61652 | 12.65355 | 20 ft | 28 kts | 225° |
| 2026-05-04 21:02 | 55.61608 | 12.65202 | 22 ft | 7 kts | 263° |
| 2026-05-04 21:02 | 55.61608 | 12.65116 | 20 ft | 9 kts | 275° |
| 2026-05-04 21:02 | 55.61615 | 12.65033 | 20 ft | 1 kts | 296° |
| 2026-05-04 21:03 | 55.61687 | 12.64875 | 20 ft | 16 kts | 315° |
| 2026-05-04 21:03 | 55.61793 | 12.64786 | 20 ft | 17 kts | 351° |
| 2026-05-04 21:03 | 55.61905 | 12.64829 | 21 ft | 18 kts | 32° |
| 2026-05-04 21:03 | 55.62003 | 12.64939 | 22 ft | 17 kts | 33° |
| 2026-05-04 21:04 | 55.62117 | 12.65069 | 23 ft | 22 kts | 32° |
| 2026-05-04 21:04 | 55.62164 | 12.65124 | 20 ft | 9 kts | 33° |
| 2026-05-04 21:04 | 55.62221 | 12.65228 | 22 ft | 0 kts | 59° |
| 2026-05-04 21:04 | 55.62247 | 12.65223 | 20 ft | 7 kts | 340° |
| 2026-05-04 21:05 | 55.62295 | 12.65277 | 20 ft | 11 kts | 90° |
| 2026-05-04 21:05 | 55.62296 | 12.65429 | 20 ft | 12 kts | 88° |
| 2026-05-04 21:05 | 55.62310 | 12.65566 | 22 ft | 1 kts | 28° |
| 2026-05-04 21:05 | 55.62351 | 12.65598 | 22 ft | 0 kts | 33° |
| 2026-05-04 21:06 | 55.62357 | 12.65606 | 21 ft | 0 kts | 37° |